Andover, CT (06232)

3:57 PM EDT on August 27, 2015 (GMT -0400)
At Skinner Lane | | Change Station
CLOSE
Current Station
Personal Weather Station
Location: Hebron, CT
Elevation: 640 ft
Nearby Weather Stations

Elev 640 ft 41.68 °N, 72.37 °W | Updated 40 seconds ago

Partly Cloudy
Partly Cloudy
76.9 °F
Feels Like 79 °F
N
0.0
Wind Variable Wind from SSW
Gusts 0.0 mph

Today
High -- | Low -- °F
--% Chance of Precip.
Yesterday
High -- | Low -- °F
Precip. -- in
6:09 AM 7:31 PM
Waxing Gibbous, 94% visible
Pressure 30.02 in
Visibility 10.0 miles
Clouds Mostly Cloudy 6000 ft
Heat Index 79 °F
Dew Point 58 °F
Humidity 52%
Rainfall 0.00 in
Snow Depth Not available.
UV 3 out of 12
Pollen 10.00 out of 12
Air Quality Not available.
Flu Activity Not available.
METAR KIJD 271952Z AUTO VRB05KT 10SM BKN060 26/13 A3002 RMK AO2 SLP165 T02560128
Pressure 30.02 in
Visibility 10.0 miles
Clouds Mostly Cloudy 6000 ft
Heat Index 79 °F
Dew Point 58 °F
Humidity 52%
Rainfall 0.00 in
Snow Depth Not available.
UV 3 out of 12
Pollen 10.00 out of 12
Air Quality Not available.
Flu Activity Not available.
METAR KIJD 271952Z AUTO VRB05KT 10SM BKN060 26/13 A3002 RMK AO2 SLP165 T02560128

10-Day Weather Forecast

×

Almanac

Astronomy

Aug. 27, 2015 Rise Set
Actual Time
Civil Twilight
Nautical Twilight
Astronomical Twilight
Moon
Length of Visible Light
Length of Day
Tomorrow will be .
, % of the Moon is Illuminated

Today's Extremes

State Highs State Lows

Community

WunderPhotos

Upload Photos

1,850,200 photos uploaded!

WunderBlogs® & News

Nearby

Air Quality

  Air Quality AQ Index Pollutant
Not available.

Snow Depth

Station Depth Elevation

Earthquake Activity

City Distance Mag. Time & Date
Minimum magnitude displayed is 2.5.

Coastal Water Temperatures

Place Temperature

Stations

Nearby Weather Stations

Station Location Temp. Windchill Dew Point Humidity Wind Precip. Elev Updated Type